sensor_id;sensor_type;location;lat;lon;timestamp;P1;durP1;ratioP1;P2;durP2;ratioP2
39620;SDS011;25309;48.686;9.170;2023-05-10T00:02:10;2.13;;;1.00;;
39620;SDS011;25309;48.686;9.170;2023-05-10T00:04:36;0.97;;;0.90;;
39620;SDS011;25309;48.686;9.170;2023-05-10T00:07:04;0.90;;;0.80;;
39620;SDS011;25309;48.686;9.170;2023-05-10T00:09:30;1.17;;;0.80;;
39620;SDS011;25309;48.686;9.170;2023-05-10T00:11:59;1.67;;;0.70;;
39620;SDS011;25309;48.686;9.170;2023-05-10T00:14:25;0.97;;;0.87;;
39620;SDS011;25309;48.686;9.170;2023-05-10T00:16:53;1.03;;;0.80;;
39620;SDS011;25309;48.686;9.170;2023-05-10T00:19:20;1.03;;;0.80;;
39620;SDS011;25309;48.686;9.170;2023-05-10T00:21:47;2.70;;;0.80;;
39620;SDS011;25309;48.686;9.170;2023-05-10T00:24:14;2.00;;;0.80;;
39620;SDS011;25309;48.686;9.170;2023-05-10T00:26:41;0.40;;;0.40;;
39620;SDS011;25309;48.686;9.170;2023-05-10T00:29:09;0.30;;;0.30;;
39620;SDS011;25309;48.686;9.170;2023-05-10T00:31:36;0.57;;;0.30;;
39620;SDS011;25309;48.686;9.170;2023-05-10T00:34:03;1.30;;;0.40;;
39620;SDS011;25309;48.686;9.170;2023-05-10T00:36:30;0.70;;;0.40;;
39620;SDS011;25309;48.686;9.170;2023-05-10T00:38:57;0.67;;;0.30;;
39620;SDS011;25309;48.686;9.170;2023-05-10T00:41:24;0.67;;;0.20;;
39620;SDS011;25309;48.686;9.170;2023-05-10T00:43:51;0.30;;;0.30;;
39620;SDS011;25309;48.686;9.170;2023-05-10T00:46:20;0.20;;;0.20;;
39620;SDS011;25309;48.686;9.170;2023-05-10T00:48:47;0.40;;;0.30;;
39620;SDS011;25309;48.686;9.170;2023-05-10T00:51:15;0.57;;;0.20;;
39620;SDS011;25309;48.686;9.170;2023-05-10T00:53:43;0.93;;;0.20;;
39620;SDS011;25309;48.686;9.170;2023-05-10T00:56:11;1.03;;;0.20;;
39620;SDS011;25309;48.686;9.170;2023-05-10T00:58:38;0.63;;;0.30;;
39620;SDS011;25309;48.686;9.170;2023-05-10T01:01:06;0.77;;;0.27;;
39620;SDS011;25309;48.686;9.170;2023-05-10T01:03:35;0.20;;;0.10;;
39620;SDS011;25309;48.686;9.170;2023-05-10T01:06:03;0.20;;;0.20;;
39620;SDS011;25309;48.686;9.170;2023-05-10T01:08:30;0.87;;;0.20;;
39620;SDS011;25309;48.686;9.170;2023-05-10T01:10:57;0.20;;;0.20;;
39620;SDS011;25309;48.686;9.170;2023-05-10T01:13:29;0.57;;;0.10;;
39620;SDS011;25309;48.686;9.170;2023-05-10T01:15:59;0.40;;;0.20;;
39620;SDS011;25309;48.686;9.170;2023-05-10T01:18:29;0.10;;;0.10;;
39620;SDS011;25309;48.686;9.170;2023-05-10T01:21:01;0.33;;;0.10;;
39620;SDS011;25309;48.686;9.170;2023-05-10T01:23:39;1.43;;;0.20;;
39620;SDS011;25309;48.686;9.170;2023-05-10T01:26:34;0.87;;;0.20;;
39620;SDS011;25309;48.686;9.170;2023-05-10T01:29:31;0.23;;;0.20;;
39620;SDS011;25309;48.686;9.170;2023-05-10T01:32:22;0.47;;;0.10;;
39620;SDS011;25309;48.686;9.170;2023-05-10T01:34:54;0.17;;;0.17;;
39620;SDS011;25309;48.686;9.170;2023-05-10T01:37:29;0.90;;;0.20;;
39620;SDS011;25309;48.686;9.170;2023-05-10T01:40:08;0.10;;;0.10;;
39620;SDS011;25309;48.686;9.170;2023-05-10T01:42:41;0.40;;;0.27;;
39620;SDS011;25309;48.686;9.170;2023-05-10T01:45:14;0.57;;;0.20;;
39620;SDS011;25309;48.686;9.170;2023-05-10T01:47:50;0.13;;;0.10;;
39620;SDS011;25309;48.686;9.170;2023-05-10T01:50:22;1.00;;;0.23;;
39620;SDS011;25309;48.686;9.170;2023-05-10T01:52:57;0.20;;;0.20;;
39620;SDS011;25309;48.686;9.170;2023-05-10T01:55:27;0.27;;;0.20;;
39620;SDS011;25309;48.686;9.170;2023-05-10T01:57:58;0.13;;;0.10;;
39620;SDS011;25309;48.686;9.170;2023-05-10T02:00:29;1.23;;;0.40;;
39620;SDS011;25309;48.686;9.170;2023-05-10T02:02:59;0.30;;;0.10;;
39620;SDS011;25309;48.686;9.170;2023-05-10T02:05:27;1.40;;;0.30;;
39620;SDS011;25309;48.686;9.170;2023-05-10T02:07:57;0.20;;;0.20;;
39620;SDS011;25309;48.686;9.170;2023-05-10T02:10:25;0.40;;;0.20;;
39620;SDS011;25309;48.686;9.170;2023-05-10T02:12:52;0.13;;;0.13;;
39620;SDS011;25309;48.686;9.170;2023-05-10T02:15:22;0.43;;;0.30;;
39620;SDS011;25309;48.686;9.170;2023-05-10T02:17:50;1.47;;;0.30;;
39620;SDS011;25309;48.686;9.170;2023-05-10T02:20:22;0.73;;;0.20;;
39620;SDS011;25309;48.686;9.170;2023-05-10T02:22:50;0.20;;;0.20;;
39620;SDS011;25309;48.686;9.170;2023-05-10T02:25:20;0.17;;;0.17;;
39620;SDS011;25309;48.686;9.170;2023-05-10T02:27:49;0.70;;;0.33;;
39620;SDS011;25309;48.686;9.170;2023-05-10T02:30:19;0.20;;;0.20;;
39620;SDS011;25309;48.686;9.170;2023-05-10T02:32:48;0.43;;;0.20;;
39620;SDS011;25309;48.686;9.170;2023-05-10T02:35:16;1.33;;;0.40;;
39620;SDS011;25309;48.686;9.170;2023-05-10T02:37:44;0.63;;;0.30;;
39620;SDS011;25309;48.686;9.170;2023-05-10T02:40:12;0.87;;;0.40;;
39620;SDS011;25309;48.686;9.170;2023-05-10T02:42:42;0.67;;;0.30;;
39620;SDS011;25309;48.686;9.170;2023-05-10T02:45:11;0.97;;;0.37;;
39620;SDS011;25309;48.686;9.170;2023-05-10T02:47:41;0.37;;;0.20;;
39620;SDS011;25309;48.686;9.170;2023-05-10T02:50:08;0.40;;;0.33;;
39620;SDS011;25309;48.686;9.170;2023-05-10T02:52:38;0.47;;;0.30;;
39620;SDS011;25309;48.686;9.170;2023-05-10T02:55:12;0.33;;;0.30;;
39620;SDS011;25309;48.686;9.170;2023-05-10T02:57:43;0.47;;;0.40;;
39620;SDS011;25309;48.686;9.170;2023-05-10T03:00:15;0.73;;;0.40;;
39620;SDS011;25309;48.686;9.170;2023-05-10T03:02:42;0.90;;;0.50;;
39620;SDS011;25309;48.686;9.170;2023-05-10T03:05:10;0.50;;;0.40;;
39620;SDS011;25309;48.686;9.170;2023-05-10T03:07:37;1.47;;;0.40;;
39620;SDS011;25309;48.686;9.170;2023-05-10T03:10:04;1.43;;;0.40;;
39620;SDS011;25309;48.686;9.170;2023-05-10T03:12:41;0.50;;;0.40;;
39620;SDS011;25309;48.686;9.170;2023-05-10T03:15:20;0.87;;;0.50;;
39620;SDS011;25309;48.686;9.170;2023-05-10T03:17:55;6.33;;;0.70;;
39620;SDS011;25309;48.686;9.170;2023-05-10T03:20:29;1.23;;;0.50;;
39620;SDS011;25309;48.686;9.170;2023-05-10T03:23:04;0.50;;;0.50;;
39620;SDS011;25309;48.686;9.170;2023-05-10T03:25:34;2.30;;;0.50;;
39620;SDS011;25309;48.686;9.170;2023-05-10T03:28:05;0.50;;;0.50;;
39620;SDS011;25309;48.686;9.170;2023-05-10T03:30:33;2.13;;;0.63;;
39620;SDS011;25309;48.686;9.170;2023-05-10T03:33:04;1.47;;;0.70;;
39620;SDS011;25309;48.686;9.170;2023-05-10T03:35:35;1.63;;;0.60;;
39620;SDS011;25309;48.686;9.170;2023-05-10T03:38:02;0.80;;;0.80;;
39620;SDS011;25309;48.686;9.170;2023-05-10T03:40:29;1.23;;;0.60;;
39620;SDS011;25309;48.686;9.170;2023-05-10T03:42:58;1.07;;;0.60;;
39620;SDS011;25309;48.686;9.170;2023-05-10T03:45:26;1.03;;;0.53;;
39620;SDS011;25309;48.686;9.170;2023-05-10T03:47:53;0.60;;;0.60;;
39620;SDS011;25309;48.686;9.170;2023-05-10T03:50:21;0.93;;;0.60;;
39620;SDS011;25309;48.686;9.170;2023-05-10T03:52:48;0.67;;;0.60;;
39620;SDS011;25309;48.686;9.170;2023-05-10T03:55:16;2.03;;;0.70;;
39620;SDS011;25309;48.686;9.170;2023-05-10T03:57:44;0.70;;;0.70;;
39620;SDS011;25309;48.686;9.170;2023-05-10T04:00:11;1.30;;;0.70;;
39620;SDS011;25309;48.686;9.170;2023-05-10T04:02:43;0.87;;;0.70;;
39620;SDS011;25309;48.686;9.170;2023-05-10T04:05:16;0.70;;;0.70;;
39620;SDS011;25309;48.686;9.170;2023-05-10T04:07:43;1.67;;;0.80;;
39620;SDS011;25309;48.686;9.170;2023-05-10T04:10:10;3.40;;;1.77;;
39620;SDS011;25309;48.686;9.170;2023-05-10T04:12:38;3.13;;;2.20;;
39620;SDS011;25309;48.686;9.170;2023-05-10T04:15:05;1.40;;;1.00;;
39620;SDS011;25309;48.686;9.170;2023-05-10T04:17:33;1.70;;;1.40;;
39620;SDS011;25309;48.686;9.170;2023-05-10T04:20:01;5.60;;;2.00;;
39620;SDS011;25309;48.686;9.170;2023-05-10T04:22:28;2.37;;;1.30;;
39620;SDS011;25309;48.686;9.170;2023-05-10T04:24:55;1.87;;;1.27;;
39620;SDS011;25309;48.686;9.170;2023-05-10T04:27:22;2.33;;;1.67;;
39620;SDS011;25309;48.686;9.170;2023-05-10T04:29:49;1.60;;;1.00;;
39620;SDS011;25309;48.686;9.170;2023-05-10T04:32:16;1.47;;;1.10;;
39620;SDS011;25309;48.686;9.170;2023-05-10T04:34:43;1.03;;;0.90;;
39620;SDS011;25309;48.686;9.170;2023-05-10T04:37:11;1.30;;;0.93;;
39620;SDS011;25309;48.686;9.170;2023-05-10T04:39:38;1.97;;;0.80;;
39620;SDS011;25309;48.686;9.170;2023-05-10T04:42:07;1.70;;;1.00;;
39620;SDS011;25309;48.686;9.170;2023-05-10T04:44:34;0.90;;;0.90;;
39620;SDS011;25309;48.686;9.170;2023-05-10T04:47:02;1.60;;;1.10;;
39620;SDS011;25309;48.686;9.170;2023-05-10T04:49:29;0.80;;;0.70;;
39620;SDS011;25309;48.686;9.170;2023-05-10T04:51:56;2.33;;;0.93;;
39620;SDS011;25309;48.686;9.170;2023-05-10T04:54:24;1.10;;;0.80;;
39620;SDS011;25309;48.686;9.170;2023-05-10T04:56:51;1.00;;;0.97;;
39620;SDS011;25309;48.686;9.170;2023-05-10T04:59:18;1.67;;;0.93;;
39620;SDS011;25309;48.686;9.170;2023-05-10T05:01:45;0.93;;;0.90;;
39620;SDS011;25309;48.686;9.170;2023-05-10T05:04:12;1.37;;;1.00;;
39620;SDS011;25309;48.686;9.170;2023-05-10T05:06:40;0.90;;;0.70;;
39620;SDS011;25309;48.686;9.170;2023-05-10T05:09:07;0.77;;;0.77;;
39620;SDS011;25309;48.686;9.170;2023-05-10T05:11:37;2.50;;;1.00;;
39620;SDS011;25309;48.686;9.170;2023-05-10T05:14:04;1.07;;;0.97;;
39620;SDS011;25309;48.686;9.170;2023-05-10T05:16:31;1.40;;;1.30;;
39620;SDS011;25309;48.686;9.170;2023-05-10T05:18:59;2.13;;;1.50;;
39620;SDS011;25309;48.686;9.170;2023-05-10T05:21:26;2.90;;;1.40;;
39620;SDS011;25309;48.686;9.170;2023-05-10T05:23:54;1.90;;;1.23;;
39620;SDS011;25309;48.686;9.170;2023-05-10T05:26:22;1.57;;;1.17;;
39620;SDS011;25309;48.686;9.170;2023-05-10T05:28:50;1.57;;;1.00;;
39620;SDS011;25309;48.686;9.170;2023-05-10T05:31:20;1.47;;;0.80;;
39620;SDS011;25309;48.686;9.170;2023-05-10T05:33:47;1.80;;;1.07;;
39620;SDS011;25309;48.686;9.170;2023-05-10T05:36:14;1.23;;;1.00;;
39620;SDS011;25309;48.686;9.170;2023-05-10T05:38:41;1.63;;;1.10;;
39620;SDS011;25309;48.686;9.170;2023-05-10T05:41:09;1.00;;;0.90;;
39620;SDS011;25309;48.686;9.170;2023-05-10T05:43:36;2.27;;;1.10;;
39620;SDS011;25309;48.686;9.170;2023-05-10T05:46:05;1.37;;;0.90;;
39620;SDS011;25309;48.686;9.170;2023-05-10T05:48:32;2.77;;;1.10;;
39620;SDS011;25309;48.686;9.170;2023-05-10T05:50:59;1.93;;;1.30;;
39620;SDS011;25309;48.686;9.170;2023-05-10T05:53:25;3.00;;;1.30;;
39620;SDS011;25309;48.686;9.170;2023-05-10T05:55:53;1.37;;;1.13;;
39620;SDS011;25309;48.686;9.170;2023-05-10T05:58:20;1.40;;;1.03;;
39620;SDS011;25309;48.686;9.170;2023-05-10T06:00:47;1.73;;;1.00;;
39620;SDS011;25309;48.686;9.170;2023-05-10T06:03:16;2.60;;;1.30;;
39620;SDS011;25309;48.686;9.170;2023-05-10T06:05:43;1.63;;;1.00;;
39620;SDS011;25309;48.686;9.170;2023-05-10T06:08:10;0.97;;;0.90;;
39620;SDS011;25309;48.686;9.170;2023-05-10T06:10:37;1.73;;;1.00;;
39620;SDS011;25309;48.686;9.170;2023-05-10T06:13:04;2.30;;;1.00;;
39620;SDS011;25309;48.686;9.170;2023-05-10T06:15:31;1.83;;;1.00;;
39620;SDS011;25309;48.686;9.170;2023-05-10T06:17:58;1.33;;;1.20;;
39620;SDS011;25309;48.686;9.170;2023-05-10T06:20:27;1.10;;;1.00;;
39620;SDS011;25309;48.686;9.170;2023-05-10T06:22:54;1.43;;;1.00;;
39620;SDS011;25309;48.686;9.170;2023-05-10T06:25:21;1.83;;;1.03;;
39620;SDS011;25309;48.686;9.170;2023-05-10T06:27:48;2.10;;;1.10;;
39620;SDS011;25309;48.686;9.170;2023-05-10T06:30:19;1.50;;;1.20;;
39620;SDS011;25309;48.686;9.170;2023-05-10T06:32:46;1.77;;;1.00;;
39620;SDS011;25309;48.686;9.170;2023-05-10T06:35:13;1.50;;;1.10;;
39620;SDS011;25309;48.686;9.170;2023-05-10T06:37:42;2.57;;;1.10;;
39620;SDS011;25309;48.686;9.170;2023-05-10T06:40:09;1.43;;;1.30;;
39620;SDS011;25309;48.686;9.170;2023-05-10T06:42:36;3.63;;;1.33;;
39620;SDS011;25309;48.686;9.170;2023-05-10T06:45:04;1.97;;;1.30;;
39620;SDS011;25309;48.686;9.170;2023-05-10T06:47:32;1.50;;;1.40;;
39620;SDS011;25309;48.686;9.170;2023-05-10T06:50:01;1.20;;;1.10;;
39620;SDS011;25309;48.686;9.170;2023-05-10T06:52:28;1.33;;;1.20;;
39620;SDS011;25309;48.686;9.170;2023-05-10T06:54:56;1.20;;;1.10;;
39620;SDS011;25309;48.686;9.170;2023-05-10T06:57:23;1.10;;;1.00;;
39620;SDS011;25309;48.686;9.170;2023-05-10T06:59:55;1.97;;;1.10;;
39620;SDS011;25309;48.686;9.170;2023-05-10T07:02:22;1.93;;;1.30;;
39620;SDS011;25309;48.686;9.170;2023-05-10T07:04:49;2.43;;;1.30;;
39620;SDS011;25309;48.686;9.170;2023-05-10T07:07:18;1.27;;;1.10;;
39620;SDS011;25309;48.686;9.170;2023-05-10T07:09:45;1.63;;;1.23;;
39620;SDS011;25309;48.686;9.170;2023-05-10T07:12:13;1.30;;;1.10;;
39620;SDS011;25309;48.686;9.170;2023-05-10T07:14:41;4.67;;;1.40;;
39620;SDS011;25309;48.686;9.170;2023-05-10T07:17:08;1.70;;;1.10;;
39620;SDS011;25309;48.686;9.170;2023-05-10T07:19:35;1.53;;;1.00;;
39620;SDS011;25309;48.686;9.170;2023-05-10T07:22:02;0.90;;;0.90;;
39620;SDS011;25309;48.686;9.170;2023-05-10T07:24:29;1.53;;;1.00;;
39620;SDS011;25309;48.686;9.170;2023-05-10T07:26:57;1.87;;;1.10;;
39620;SDS011;25309;48.686;9.170;2023-05-10T07:29:25;1.50;;;1.03;;
39620;SDS011;25309;48.686;9.170;2023-05-10T07:31:52;1.40;;;1.00;;
39620;SDS011;25309;48.686;9.170;2023-05-10T07:34:22;1.10;;;1.00;;
39620;SDS011;25309;48.686;9.170;2023-05-10T07:36:49;2.80;;;1.10;;
39620;SDS011;25309;48.686;9.170;2023-05-10T07:39:16;1.30;;;1.20;;
39620;SDS011;25309;48.686;9.170;2023-05-10T07:41:52;1.30;;;1.20;;
39620;SDS011;25309;48.686;9.170;2023-05-10T07:44:19;1.60;;;0.90;;
39620;SDS011;25309;48.686;9.170;2023-05-10T07:46:48;1.33;;;0.90;;
39620;SDS011;25309;48.686;9.170;2023-05-10T07:49:15;2.17;;;1.10;;
39620;SDS011;25309;48.686;9.170;2023-05-10T07:51:42;1.50;;;1.00;;
39620;SDS011;25309;48.686;9.170;2023-05-10T07:54:09;0.90;;;0.80;;
39620;SDS011;25309;48.686;9.170;2023-05-10T07:56:35;2.33;;;1.00;;
39620;SDS011;25309;48.686;9.170;2023-05-10T07:59:03;1.90;;;1.23;;
39620;SDS011;25309;48.686;9.170;2023-05-10T08:01:33;2.50;;;1.00;;
39620;SDS011;25309;48.686;9.170;2023-05-10T08:04:01;1.67;;;0.80;;
39620;SDS011;25309;48.686;9.170;2023-05-10T08:06:29;3.80;;;1.10;;
39620;SDS011;25309;48.686;9.170;2023-05-10T08:08:56;1.13;;;0.80;;
39620;SDS011;25309;48.686;9.170;2023-05-10T08:11:23;1.27;;;0.70;;
39620;SDS011;25309;48.686;9.170;2023-05-10T08:13:51;1.00;;;0.60;;
39620;SDS011;25309;48.686;9.170;2023-05-10T08:16:19;0.93;;;0.70;;
39620;SDS011;25309;48.686;9.170;2023-05-10T08:18:46;1.60;;;0.90;;
39620;SDS011;25309;48.686;9.170;2023-05-10T08:21:15;1.20;;;0.60;;
39620;SDS011;25309;48.686;9.170;2023-05-10T08:23:42;1.00;;;0.80;;
39620;SDS011;25309;48.686;9.170;2023-05-10T08:26:10;1.50;;;0.77;;
39620;SDS011;25309;48.686;9.170;2023-05-10T08:28:37;0.77;;;0.70;;
39620;SDS011;25309;48.686;9.170;2023-05-10T08:31:04;1.03;;;0.83;;
39620;SDS011;25309;48.686;9.170;2023-05-10T08:33:32;0.60;;;0.60;;
39620;SDS011;25309;48.686;9.170;2023-05-10T08:35:59;1.80;;;0.80;;
39620;SDS011;25309;48.686;9.170;2023-05-10T08:38:27;1.87;;;0.77;;
39620;SDS011;25309;48.686;9.170;2023-05-10T08:40:54;1.40;;;0.70;;
39620;SDS011;25309;48.686;9.170;2023-05-10T08:43:26;2.77;;;0.97;;
39620;SDS011;25309;48.686;9.170;2023-05-10T08:45:56;1.33;;;0.80;;
39620;SDS011;25309;48.686;9.170;2023-05-10T08:48:27;1.77;;;0.83;;
39620;SDS011;25309;48.686;9.170;2023-05-10T08:50:55;1.83;;;0.80;;
39620;SDS011;25309;48.686;9.170;2023-05-10T08:53:27;0.83;;;0.70;;
39620;SDS011;25309;48.686;9.170;2023-05-10T08:55:57;0.67;;;0.67;;
39620;SDS011;25309;48.686;9.170;2023-05-10T08:58:24;1.60;;;0.87;;
39620;SDS011;25309;48.686;9.170;2023-05-10T09:00:51;1.63;;;0.50;;
39620;SDS011;25309;48.686;9.170;2023-05-10T09:03:19;2.20;;;0.70;;
39620;SDS011;25309;48.686;9.170;2023-05-10T09:05:46;1.37;;;0.60;;
39620;SDS011;25309;48.686;9.170;2023-05-10T09:08:14;1.70;;;0.63;;
39620;SDS011;25309;48.686;9.170;2023-05-10T09:10:44;0.80;;;0.67;;
39620;SDS011;25309;48.686;9.170;2023-05-10T09:13:13;0.53;;;0.50;;
39620;SDS011;25309;48.686;9.170;2023-05-10T09:15:43;1.00;;;0.70;;
39620;SDS011;25309;48.686;9.170;2023-05-10T09:18:11;0.87;;;0.80;;
39620;SDS011;25309;48.686;9.170;2023-05-10T09:20:38;0.87;;;0.70;;
39620;SDS011;25309;48.686;9.170;2023-05-10T09:23:06;1.40;;;0.60;;
39620;SDS011;25309;48.686;9.170;2023-05-10T09:25:33;0.50;;;0.50;;
39620;SDS011;25309;48.686;9.170;2023-05-10T09:28:02;0.50;;;0.50;;
39620;SDS011;25309;48.686;9.170;2023-05-10T09:30:32;0.47;;;0.40;;
39620;SDS011;25309;48.686;9.170;2023-05-10T09:32:59;2.60;;;0.60;;
39620;SDS011;25309;48.686;9.170;2023-05-10T09:35:27;0.37;;;0.37;;
39620;SDS011;25309;48.686;9.170;2023-05-10T09:37:56;0.40;;;0.40;;
39620;SDS011;25309;48.686;9.170;2023-05-10T09:40:24;0.43;;;0.40;;
39620;SDS011;25309;48.686;9.170;2023-05-10T09:42:53;0.37;;;0.30;;
39620;SDS011;25309;48.686;9.170;2023-05-10T09:45:23;1.17;;;0.37;;
39620;SDS011;25309;48.686;9.170;2023-05-10T09:47:52;1.70;;;0.53;;
39620;SDS011;25309;48.686;9.170;2023-05-10T09:50:19;4.57;;;0.80;;
39620;SDS011;25309;48.686;9.170;2023-05-10T09:52:48;3.30;;;0.60;;
39620;SDS011;25309;48.686;9.170;2023-05-10T09:55:17;0.90;;;0.30;;
39620;SDS011;25309;48.686;9.170;2023-05-10T09:57:46;0.60;;;0.43;;
39620;SDS011;25309;48.686;9.170;2023-05-10T10:00:17;0.77;;;0.60;;
39620;SDS011;25309;48.686;9.170;2023-05-10T10:02:47;0.67;;;0.40;;
39620;SDS011;25309;48.686;9.170;2023-05-10T10:05:20;0.47;;;0.43;;
39620;SDS011;25309;48.686;9.170;2023-05-10T10:07:47;0.40;;;0.40;;
39620;SDS011;25309;48.686;9.170;2023-05-10T10:10:16;0.47;;;0.47;;
39620;SDS011;25309;48.686;9.170;2023-05-10T10:12:43;0.83;;;0.50;;
39620;SDS011;25309;48.686;9.170;2023-05-10T10:15:10;1.23;;;0.73;;
39620;SDS011;25309;48.686;9.170;2023-05-10T10:17:41;1.07;;;0.40;;
39620;SDS011;25309;48.686;9.170;2023-05-10T10:20:11;0.47;;;0.30;;
39620;SDS011;25309;48.686;9.170;2023-05-10T10:22:39;0.67;;;0.57;;
39620;SDS011;25309;48.686;9.170;2023-05-10T10:25:07;1.57;;;0.50;;
39620;SDS011;25309;48.686;9.170;2023-05-10T10:27:37;0.30;;;0.30;;
39620;SDS011;25309;48.686;9.170;2023-05-10T10:30:13;0.30;;;0.30;;
39620;SDS011;25309;48.686;9.170;2023-05-10T10:32:59;0.60;;;0.30;;
39620;SDS011;25309;48.686;9.170;2023-05-10T10:35:47;1.53;;;0.50;;
39620;SDS011;25309;48.686;9.170;2023-05-10T10:38:14;1.17;;;0.30;;
39620;SDS011;25309;48.686;9.170;2023-05-10T10:40:40;0.40;;;0.40;;
39620;SDS011;25309;48.686;9.170;2023-05-10T10:43:21;0.83;;;0.43;;
39620;SDS011;25309;48.686;9.170;2023-05-10T10:48:39;0.70;;;0.40;;
39620;SDS011;25309;48.686;9.170;2023-05-10T10:51:07;0.20;;;0.20;;
39620;SDS011;25309;48.686;9.170;2023-05-10T10:53:37;1.53;;;0.40;;
39620;SDS011;25309;48.686;9.170;2023-05-10T10:56:07;0.93;;;0.30;;
39620;SDS011;25309;48.686;9.170;2023-05-10T10:58:36;0.30;;;0.30;;
39620;SDS011;25309;48.686;9.170;2023-05-10T11:01:10;0.40;;;0.40;;
39620;SDS011;25309;48.686;9.170;2023-05-10T11:03:38;0.53;;;0.43;;
39620;SDS011;25309;48.686;9.170;2023-05-10T11:06:05;0.67;;;0.47;;
39620;SDS011;25309;48.686;9.170;2023-05-10T11:08:40;1.97;;;0.47;;
39620;SDS011;25309;48.686;9.170;2023-05-10T11:11:09;1.87;;;0.60;;
39620;SDS011;25309;48.686;9.170;2023-05-10T11:13:41;0.57;;;0.53;;
39620;SDS011;25309;48.686;9.170;2023-05-10T11:16:10;1.10;;;0.60;;
39620;SDS011;25309;48.686;9.170;2023-05-10T11:18:38;2.30;;;0.50;;
39620;SDS011;25309;48.686;9.170;2023-05-10T11:21:07;0.53;;;0.40;;
39620;SDS011;25309;48.686;9.170;2023-05-10T11:23:49;1.77;;;0.60;;
39620;SDS011;25309;48.686;9.170;2023-05-10T11:26:18;0.90;;;0.57;;
39620;SDS011;25309;48.686;9.170;2023-05-10T11:28:45;1.30;;;0.70;;
39620;SDS011;25309;48.686;9.170;2023-05-10T11:31:13;1.83;;;0.70;;
39620;SDS011;25309;48.686;9.170;2023-05-10T11:33:44;0.50;;;0.50;;
39620;SDS011;25309;48.686;9.170;2023-05-10T11:36:13;2.20;;;0.60;;
39620;SDS011;25309;48.686;9.170;2023-05-10T11:38:41;1.53;;;0.70;;
39620;SDS011;25309;48.686;9.170;2023-05-10T11:41:08;1.63;;;0.80;;
39620;SDS011;25309;48.686;9.170;2023-05-10T11:43:36;1.57;;;0.70;;
39620;SDS011;25309;48.686;9.170;2023-05-10T11:46:04;1.60;;;0.50;;
39620;SDS011;25309;48.686;9.170;2023-05-10T11:48:32;1.60;;;0.80;;
39620;SDS011;25309;48.686;9.170;2023-05-10T11:51:00;1.67;;;0.83;;
39620;SDS011;25309;48.686;9.170;2023-05-10T11:53:30;1.33;;;0.87;;
39620;SDS011;25309;48.686;9.170;2023-05-10T11:56:02;2.03;;;0.70;;
39620;SDS011;25309;48.686;9.170;2023-05-10T11:58:30;1.43;;;0.70;;
39620;SDS011;25309;48.686;9.170;2023-05-10T12:00:57;0.97;;;0.60;;
39620;SDS011;25309;48.686;9.170;2023-05-10T12:03:24;1.13;;;0.73;;
39620;SDS011;25309;48.686;9.170;2023-05-10T12:05:52;1.33;;;0.80;;
39620;SDS011;25309;48.686;9.170;2023-05-10T12:08:20;3.23;;;0.80;;
39620;SDS011;25309;48.686;9.170;2023-05-10T12:10:50;1.23;;;0.80;;
39620;SDS011;25309;48.686;9.170;2023-05-10T12:13:17;2.27;;;0.83;;
39620;SDS011;25309;48.686;9.170;2023-05-10T12:15:46;1.53;;;0.70;;
39620;SDS011;25309;48.686;9.170;2023-05-10T12:18:14;1.03;;;0.80;;
39620;SDS011;25309;48.686;9.170;2023-05-10T12:20:41;1.33;;;0.70;;
39620;SDS011;25309;48.686;9.170;2023-05-10T12:23:09;0.97;;;0.80;;
39620;SDS011;25309;48.686;9.170;2023-05-10T12:25:37;1.30;;;0.77;;
39620;SDS011;25309;48.686;9.170;2023-05-10T12:28:07;1.70;;;0.80;;
39620;SDS011;25309;48.686;9.170;2023-05-10T12:30:36;1.63;;;0.70;;
39620;SDS011;25309;48.686;9.170;2023-05-10T12:33:07;1.63;;;1.00;;
39620;SDS011;25309;48.686;9.170;2023-05-10T12:35:43;2.83;;;1.20;;
39620;SDS011;25309;48.686;9.170;2023-05-10T12:38:27;1.30;;;0.70;;
39620;SDS011;25309;48.686;9.170;2023-05-10T12:40:58;1.53;;;0.80;;
39620;SDS011;25309;48.686;9.170;2023-05-10T12:43:28;1.83;;;0.80;;
39620;SDS011;25309;48.686;9.170;2023-05-10T12:45:55;1.50;;;0.70;;
39620;SDS011;25309;48.686;9.170;2023-05-10T12:48:22;1.87;;;1.00;;
39620;SDS011;25309;48.686;9.170;2023-05-10T12:50:49;1.97;;;0.80;;
39620;SDS011;25309;48.686;9.170;2023-05-10T12:53:16;0.97;;;0.77;;
39620;SDS011;25309;48.686;9.170;2023-05-10T12:55:43;1.43;;;0.80;;
39620;SDS011;25309;48.686;9.170;2023-05-10T12:58:11;2.97;;;1.00;;
39620;SDS011;25309;48.686;9.170;2023-05-10T13:00:47;1.63;;;0.90;;
39620;SDS011;25309;48.686;9.170;2023-05-10T13:03:14;1.40;;;0.70;;
39620;SDS011;25309;48.686;9.170;2023-05-10T13:05:41;1.73;;;0.70;;
39620;SDS011;25309;48.686;9.170;2023-05-10T13:08:08;1.93;;;0.70;;
39620;SDS011;25309;48.686;9.170;2023-05-10T13:10:35;1.37;;;0.80;;
39620;SDS011;25309;48.686;9.170;2023-05-10T13:13:02;2.43;;;0.80;;
39620;SDS011;25309;48.686;9.170;2023-05-10T13:15:29;2.63;;;0.90;;
39620;SDS011;25309;48.686;9.170;2023-05-10T13:17:57;3.63;;;1.00;;
39620;SDS011;25309;48.686;9.170;2023-05-10T13:20:24;2.23;;;0.60;;
39620;SDS011;25309;48.686;9.170;2023-05-10T13:22:51;1.53;;;0.77;;
39620;SDS011;25309;48.686;9.170;2023-05-10T13:25:19;1.60;;;0.70;;
39620;SDS011;25309;48.686;9.170;2023-05-10T13:27:46;1.50;;;0.60;;
39620;SDS011;25309;48.686;9.170;2023-05-10T13:30:13;1.03;;;0.60;;
39620;SDS011;25309;48.686;9.170;2023-05-10T13:32:40;4.13;;;0.70;;
39620;SDS011;25309;48.686;9.170;2023-05-10T13:35:08;1.90;;;0.77;;
39620;SDS011;25309;48.686;9.170;2023-05-10T13:37:35;0.73;;;0.60;;
39620;SDS011;25309;48.686;9.170;2023-05-10T13:40:03;0.77;;;0.77;;
39620;SDS011;25309;48.686;9.170;2023-05-10T13:42:32;1.00;;;0.70;;
39620;SDS011;25309;48.686;9.170;2023-05-10T13:44:59;1.33;;;0.60;;
39620;SDS011;25309;48.686;9.170;2023-05-10T13:47:28;0.40;;;0.40;;
39620;SDS011;25309;48.686;9.170;2023-05-10T13:49:55;1.90;;;0.70;;
39620;SDS011;25309;48.686;9.170;2023-05-10T13:52:23;1.70;;;0.87;;
39620;SDS011;25309;48.686;9.170;2023-05-10T13:54:50;1.30;;;0.70;;
39620;SDS011;25309;48.686;9.170;2023-05-10T13:57:21;2.60;;;0.87;;
39620;SDS011;25309;48.686;9.170;2023-05-10T13:59:48;2.30;;;0.80;;
39620;SDS011;25309;48.686;9.170;2023-05-10T14:02:15;0.97;;;0.70;;
39620;SDS011;25309;48.686;9.170;2023-05-10T14:04:42;1.67;;;1.03;;
39620;SDS011;25309;48.686;9.170;2023-05-10T14:07:09;1.60;;;1.10;;
39620;SDS011;25309;48.686;9.170;2023-05-10T14:09:37;2.67;;;0.93;;
39620;SDS011;25309;48.686;9.170;2023-05-10T14:12:04;2.17;;;0.93;;
39620;SDS011;25309;48.686;9.170;2023-05-10T14:14:31;1.67;;;1.10;;
39620;SDS011;25309;48.686;9.170;2023-05-10T14:16:58;2.17;;;0.97;;
39620;SDS011;25309;48.686;9.170;2023-05-10T14:19:25;2.27;;;1.00;;
39620;SDS011;25309;48.686;9.170;2023-05-10T14:21:53;2.83;;;0.90;;
39620;SDS011;25309;48.686;9.170;2023-05-10T14:24:20;0.70;;;0.70;;
39620;SDS011;25309;48.686;9.170;2023-05-10T14:26:48;2.43;;;0.80;;
39620;SDS011;25309;48.686;9.170;2023-05-10T14:29:15;2.63;;;0.70;;
39620;SDS011;25309;48.686;9.170;2023-05-10T14:31:42;1.43;;;0.77;;
39620;SDS011;25309;48.686;9.170;2023-05-10T14:34:09;1.23;;;0.70;;
39620;SDS011;25309;48.686;9.170;2023-05-10T14:36:36;1.03;;;0.50;;
39620;SDS011;25309;48.686;9.170;2023-05-10T14:39:03;1.60;;;0.80;;
39620;SDS011;25309;48.686;9.170;2023-05-10T14:41:30;1.13;;;0.80;;
39620;SDS011;25309;48.686;9.170;2023-05-10T14:43:58;1.90;;;0.73;;
39620;SDS011;25309;48.686;9.170;2023-05-10T14:46:25;1.40;;;0.80;;
39620;SDS011;25309;48.686;9.170;2023-05-10T14:48:53;2.07;;;0.97;;
39620;SDS011;25309;48.686;9.170;2023-05-10T14:51:19;3.17;;;0.87;;
39620;SDS011;25309;48.686;9.170;2023-05-10T14:53:48;1.37;;;0.70;;
39620;SDS011;25309;48.686;9.170;2023-05-10T14:56:15;1.17;;;0.70;;
39620;SDS011;25309;48.686;9.170;2023-05-10T14:58:42;1.93;;;0.67;;
39620;SDS011;25309;48.686;9.170;2023-05-10T15:01:10;1.80;;;1.13;;